Time,TemperatureF,DewpointF,PressureIn,WindDirection,WindDirectionDegrees,WindSpeedMPH,WindSpeedGustMPH,Humidity,HourlyPrecipIn,Conditions,Clouds,dailyrainin,SoftwareType,DateUTC
2013-06-03 00:02:00,61.0,57.0,29.70,WNW,283,0.0,0.0,86,0.00,,,-99.99,,2013-06-03 07:02:00,
2013-06-03 00:12:00,61.0,57.0,29.70,WNW,283,0.0,0.0,86,0.00,,,-99.99,,2013-06-03 07:12:00,
2013-06-03 00:22:00,61.0,57.0,29.70,WNW,283,0.0,1.0,87,0.00,,,-99.99,,2013-06-03 07:22:00,
2013-06-03 00:32:00,61.0,57.0,29.70,WNW,283,0.0,1.0,87,0.00,,,-99.99,,2013-06-03 07:32:00,
2013-06-03 00:42:00,61.0,57.0,29.70,WNW,283,0.0,1.0,87,0.00,,,-99.99,,2013-06-03 07:42:00,
2013-06-03 01:52:00,60.0,56.0,29.69,WNW,283,0.0,0.0,88,0.00,,,-99.99,,2013-06-03 08:52:00,
2013-06-03 02:02:00,60.0,56.0,29.69,WNW,283,0.0,0.0,88,0.00,,,-99.99,,2013-06-03 09:02:00,
2013-06-03 02:12:00,60.0,56.0,29.69,WNW,283,0.0,0.0,88,0.00,,,-99.99,,2013-06-03 09:12:00,
2013-06-03 02:21:00,60.0,56.0,29.69,WNW,283,0.0,0.0,88,0.00,,,-99.99,,2013-06-03 09:21:00,
2013-06-03 02:33:00,60.0,56.0,29.69,WNW,283,0.0,0.0,88,0.00,,,-99.99,,2013-06-03 09:33:00,
2013-06-03 02:42:00,60.0,56.0,29.69,WNW,283,0.0,0.0,88,0.00,,,-99.99,,2013-06-03 09:42:00,
2013-06-03 02:50:00,60.0,56.0,29.67,WNW,283,0.0,0.0,88,0.00,,,-99.99,,2013-06-03 09:50:00,
2013-06-03 02:52:00,60.0,56.0,29.68,WNW,283,0.0,0.0,88,0.00,,,-99.99,,2013-06-03 09:52:00,
2013-06-03 03:02:00,60.0,56.0,29.68,WNW,283,0.0,0.0,88,0.00,,,-99.99,,2013-06-03 10:02:00,
2013-06-03 03:12:00,60.0,56.0,29.67,WNW,283,0.0,0.0,88,0.00,,,-99.99,,2013-06-03 10:12:00,
2013-06-03 03:22:00,60.0,56.0,29.67,WNW,283,0.0,0.0,88,0.00,,,-99.99,,2013-06-03 10:22:00,
2013-06-03 03:33:00,60.0,56.0,29.67,WNW,283,0.0,0.0,88,0.00,,,-99.99,,2013-06-03 10:33:00,
2013-06-03 03:42:00,60.0,56.0,29.67,WNW,283,0.0,0.0,88,0.00,,,-99.99,,2013-06-03 10:42:00,
2013-06-03 04:22:00,61.0,57.0,29.67,WNW,283,0.0,0.0,87,0.00,,,-99.99,,2013-06-03 11:22:00,
2013-06-03 04:32:00,61.0,57.0,29.67,WNW,283,0.0,0.0,87,0.00,,,-99.99,,2013-06-03 11:32:00,
2013-06-03 04:42:00,61.0,57.0,29.67,WNW,283,0.0,0.0,87,0.00,,,-99.99,,2013-06-03 11:42:00,
2013-06-03 04:52:00,61.0,57.0,29.67,WNW,283,0.0,0.0,87,0.00,,,-99.99,,2013-06-03 11:52:00,
2013-06-03 05:02:00,61.0,57.0,29.67,WNW,283,0.0,0.0,87,0.00,,,-99.99,,2013-06-03 12:02:00,
2013-06-03 05:12:00,61.0,57.0,29.67,WNW,283,0.0,0.0,87,0.00,,,-99.99,,2013-06-03 12:12:00,
2013-06-03 05:21:00,61.0,57.0,29.67,WNW,283,0.0,0.0,87,0.00,,,-99.99,,2013-06-03 12:21:00,
2013-06-03 05:32:00,61.0,57.0,29.67,WNW,283,0.0,0.0,87,0.00,,,-99.99,,2013-06-03 12:32:00,
2013-06-03 05:42:00,61.0,57.0,29.67,WNW,283,0.0,0.0,87,0.00,,,-99.99,,2013-06-03 12:42:00,
2013-06-03 05:50:00,61.0,57.0,29.69,WNW,283,0.0,0.0,86,0.00,,,-99.99,,2013-06-03 12:50:00,
2013-06-03 05:52:00,61.0,57.0,29.68,WNW,283,0.0,0.0,86,0.00,,,-99.99,,2013-06-03 12:52:00,
2013-06-03 06:02:00,61.0,57.0,29.68,WNW,283,0.0,0.0,86,0.00,,,-99.99,,2013-06-03 13:02:00,
2013-06-03 06:12:00,61.0,57.0,29.68,WNW,283,0.0,0.0,86,0.00,,,-99.99,,2013-06-03 13:12:00,
2013-06-03 06:22:00,61.0,57.0,29.69,WNW,283,0.0,0.0,86,0.00,,,-99.99,,2013-06-03 13:22:00,
2013-06-03 06:32:00,61.0,57.0,29.69,WNW,283,0.0,0.0,86,0.00,,,-99.99,,2013-06-03 13:32:00,
2013-06-03 06:42:00,61.0,57.0,29.69,WNW,283,0.0,0.0,86,0.00,,,-99.99,,2013-06-03 13:42:00,
2013-06-03 07:20:00,62.0,57.0,29.72,WNW,283,0.0,0.0,85,0.00,,,-99.99,,2013-06-03 14:20:00,
2013-06-03 07:52:00,62.0,57.0,29.72,WNW,283,0.0,0.0,85,0.00,,,-99.99,,2013-06-03 14:52:00,
2013-06-03 08:02:00,62.0,57.0,29.72,WNW,283,0.0,0.0,85,0.00,,,-99.99,,2013-06-03 15:02:00,
2013-06-03 08:12:00,62.0,57.0,29.72,WNW,283,0.0,0.0,85,0.00,,,-99.99,,2013-06-03 15:12:00,
2013-06-03 08:20:00,63.0,57.0,29.73,WNW,283,0.0,0.0,82,0.00,,,-99.99,,2013-06-03 15:20:00,
2013-06-03 08:53:00,63.0,57.0,29.73,WNW,283,0.0,0.0,82,0.00,,,-99.99,,2013-06-03 15:53:00,
2013-06-03 09:03:00,63.0,57.0,29.73,WNW,283,0.0,0.0,82,0.00,,,-99.99,,2013-06-03 16:03:00,
2013-06-03 09:12:00,63.0,57.0,29.73,WNW,283,0.0,0.0,82,0.00,,,-99.99,,2013-06-03 16:12:00,
2013-06-03 09:42:00,65.0,55.0,29.75,NE,51,1.0,5.0,69,0.00,,,-99.99,,2013-06-03 16:42:00,
2013-06-03 09:53:00,65.0,55.0,29.75,NE,51,1.0,5.0,69,0.00,,,-99.99,,2013-06-03 16:53:00,
2013-06-03 10:02:00,65.0,55.0,29.75,NE,51,1.0,5.0,69,0.00,,,-99.99,,2013-06-03 17:02:00,
2013-06-03 10:12:00,65.0,55.0,29.75,NE,51,1.0,5.0,69,0.00,,,-99.99,,2013-06-03 17:12:00,
2013-06-03 10:20:00,69.0,54.0,29.75,ENE,61,2.0,7.0,58,0.00,,,-99.99,,2013-06-03 17:20:00,
2013-06-03 10:22:00,67.0,54.0,29.75,ENE,71,1.0,5.0,64,0.00,,,-99.99,,2013-06-03 17:22:00,
2013-06-03 10:33:00,67.0,54.0,29.75,ENE,71,1.0,5.0,64,0.00,,,-99.99,,2013-06-03 17:33:00,
2013-06-03 10:42:00,69.0,54.0,29.75,ENE,61,2.0,7.0,58,0.00,,,-99.99,,2013-06-03 17:42:00,
2013-06-03 10:52:00,69.0,54.0,29.75,ENE,61,2.0,7.0,58,0.00,,,-99.99,,2013-06-03 17:52:00,
2013-06-03 11:02:00,69.0,54.0,29.75,ENE,61,2.0,7.0,58,0.00,,,-99.99,,2013-06-03 18:02:00,
2013-06-03 11:12:00,69.0,54.0,29.75,ENE,61,2.0,7.0,58,0.00,,,-99.99,,2013-06-03 18:12:00,
2013-06-03 12:20:00,74.0,57.0,29.74,NNW,333,4.0,11.0,56,0.00,,,-99.99,,2013-06-03 19:20:00,
2013-06-03 12:52:00,74.0,57.0,29.74,NNW,333,4.0,11.0,56,0.00,,,-99.99,,2013-06-03 19:52:00,
2013-06-03 13:02:00,74.0,57.0,29.74,NNW,333,4.0,11.0,56,0.00,,,-99.99,,2013-06-03 20:02:00,
2013-06-03 13:12:00,74.0,57.0,29.74,NNW,333,4.0,11.0,56,0.00,,,-99.99,,2013-06-03 20:12:00,
2013-06-03 13:20:00,74.0,57.0,29.72,West,260,5.0,19.0,55,0.00,,,-99.99,,2013-06-03 20:20:00,
2013-06-03 13:52:00,74.0,57.0,29.72,West,260,5.0,19.0,55,0.00,,,-99.99,,2013-06-03 20:52:00,
2013-06-03 14:02:00,74.0,57.0,29.72,West,260,5.0,19.0,55,0.00,,,-99.99,,2013-06-03 21:02:00,
2013-06-03 14:12:00,74.0,57.0,29.72,West,260,5.0,19.0,55,0.00,,,-99.99,,2013-06-03 21:12:00,
2013-06-03 14:50:00,72.0,57.0,29.73,SW,226,1.0,6.0,60,0.00,,,-99.99,,2013-06-03 21:50:00,
2013-06-03 14:53:00,73.0,58.0,29.73,SSW,204,2.0,6.0,60,0.00,,,-99.99,,2013-06-03 21:53:00,
2013-06-03 15:02:00,73.0,58.0,29.73,SSW,204,2.0,6.0,60,0.00,,,-99.99,,2013-06-03 22:02:00,
2013-06-03 15:12:00,73.0,58.0,29.73,SSW,204,2.0,6.0,60,0.00,,,-99.99,,2013-06-03 22:12:00,
2013-06-03 15:22:00,72.0,57.0,29.73,SW,226,1.0,6.0,60,0.00,,,-99.99,,2013-06-03 22:22:00,
2013-06-03 15:32:00,72.0,57.0,29.73,SW,226,1.0,6.0,60,0.00,,,-99.99,,2013-06-03 22:32:00,
2013-06-03 15:42:00,72.0,57.0,29.73,SW,226,1.0,6.0,60,0.00,,,-99.99,,2013-06-03 22:42:00,
2013-06-03 16:22:00,72.0,57.0,29.73,SSW,193,1.0,4.0,60,0.00,,,-99.99,,2013-06-03 23:22:00,
2013-06-03 16:32:00,72.0,57.0,29.73,SSW,193,1.0,4.0,60,0.00,,,-99.99,,2013-06-03 23:32:00,
2013-06-03 16:42:00,72.0,57.0,29.73,SSW,193,1.0,4.0,60,0.00,,,-99.99,,2013-06-03 23:42:00,
2013-06-03 16:52:00,72.0,57.0,29.73,WSW,249,1.0,6.0,59,0.00,,,-99.99,,2013-06-03 23:52:00,
2013-06-03 17:02:00,72.0,57.0,29.73,WSW,249,1.0,6.0,59,0.00,,,-99.99,,2013-06-04 00:02:00,
2013-06-03 17:12:00,72.0,57.0,29.73,WSW,249,1.0,6.0,59,0.00,,,-99.99,,2013-06-04 00:12:00,
2013-06-03 17:21:00,73.0,57.0,29.72,SSW,198,1.0,7.0,58,0.00,,,-99.99,,2013-06-04 00:21:00,
2013-06-03 17:32:00,73.0,57.0,29.72,SSW,198,1.0,7.0,58,0.00,,,-99.99,,2013-06-04 00:32:00,
2013-06-03 17:42:00,73.0,57.0,29.72,SSW,198,1.0,7.0,58,0.00,,,-99.99,,2013-06-04 00:42:00,
2013-06-03 17:50:00,70.0,57.0,29.71,SSE,165,1.0,4.0,63,0.00,,,-99.99,,2013-06-04 00:50:00,
2013-06-03 17:52:00,70.0,56.0,29.72,South,180,0.0,3.0,62,0.00,,,-99.99,,2013-06-04 00:52:00,
2013-06-03 18:02:00,70.0,56.0,29.72,South,180,0.0,3.0,62,0.00,,,-99.99,,2013-06-04 01:02:00,
2013-06-03 18:12:00,70.0,56.0,29.72,South,180,0.0,3.0,62,0.00,,,-99.99,,2013-06-04 01:12:00,
2013-06-03 18:21:00,70.0,57.0,29.71,SSE,165,1.0,4.0,63,0.00,,,-99.99,,2013-06-04 01:21:00,
2013-06-03 18:32:00,70.0,57.0,29.71,SSE,165,1.0,4.0,63,0.00,,,-99.99,,2013-06-04 01:32:00,
2013-06-03 18:42:00,70.0,57.0,29.71,SSE,165,1.0,4.0,63,0.00,,,-99.99,,2013-06-04 01:42:00,
2013-06-03 19:20:00,65.0,56.0,29.73,South,178,0.0,2.0,72,0.00,,,-99.99,,2013-06-04 02:20:00,
2013-06-03 19:52:00,65.0,56.0,29.73,South,178,0.0,2.0,72,0.00,,,-99.99,,2013-06-04 02:52:00,
2013-06-03 20:02:00,65.0,56.0,29.73,South,178,0.0,2.0,72,0.00,,,-99.99,,2013-06-04 03:02:00,
2013-06-03 20:12:00,65.0,56.0,29.73,South,178,0.0,2.0,72,0.00,,,-99.99,,2013-06-04 03:12:00,
2013-06-03 20:50:00,63.0,55.0,29.75,West,279,0.0,4.0,75,0.00,,,-99.99,,2013-06-04 03:50:00,
2013-06-03 21:23:00,63.0,55.0,29.75,West,279,0.0,4.0,75,0.00,,,-99.99,,2013-06-04 04:23:00,
2013-06-03 21:33:00,63.0,55.0,29.75,West,279,0.0,4.0,75,0.00,,,-99.99,,2013-06-04 04:33:00,
2013-06-03 21:42:00,63.0,55.0,29.75,West,279,0.0,4.0,75,0.00,,,-99.99,,2013-06-04 04:42:00,
2013-06-03 22:22:00,62.0,55.0,29.76,WNW,298,2.0,5.0,77,0.00,,,-99.99,,2013-06-04 05:22:00,
2013-06-03 22:32:00,62.0,55.0,29.76,WNW,298,2.0,5.0,77,0.00,,,-99.99,,2013-06-04 05:32:00,
2013-06-03 22:42:00,62.0,55.0,29.76,WNW,298,2.0,5.0,77,0.00,,,-99.99,,2013-06-04 05:42:00,
2013-06-03 22:52:00,62.0,55.0,29.76,WNW,288,2.0,6.0,79,0.00,,,-99.99,,2013-06-04 05:52:00,
2013-06-03 23:02:00,62.0,55.0,29.76,WNW,288,2.0,6.0,79,0.00,,,-99.99,,2013-06-04 06:02:00,
2013-06-03 23:12:00,62.0,55.0,29.76,WNW,288,2.0,6.0,79,0.00,,,-99.99,,2013-06-04 06:12:00,
2013-06-03 23:22:00,62.0,55.0,29.76,WNW,290,1.0,5.0,79,0.00,,,-99.99,,2013-06-04 06:22:00,
2013-06-03 23:32:00,62.0,55.0,29.76,WNW,290,1.0,5.0,79,0.00,,,-99.99,,2013-06-04 06:32:00,
2013-06-03 23:42:00,62.0,55.0,29.76,WNW,290,1.0,5.0,79,0.00,,,-99.99,,2013-06-04 06:42:00,
2013-06-03 23:50:00,61.0,54.0,29.78,West,277,1.0,5.0,79,0.00,,,-99.99,,2013-06-04 06:50:00,
2013-06-03 23:52:00,61.0,54.0,29.77,West,279,1.0,5.0,79,0.00,,,-99.99,,2013-06-04 06:52:00,